sensor_id;sensor_type;location;lat;lon;timestamp;P1;durP1;ratioP1;P2;durP2;ratioP2
30133;SDS011;16946;49.984;10.672;2023-03-23T00:00:00;2.90;;;1.73;;
30133;SDS011;16946;49.984;10.672;2023-03-23T00:00:30;2.50;;;2.00;;
30133;SDS011;16946;49.984;10.672;2023-03-23T00:01:02;2.60;;;2.00;;
30133;SDS011;16946;49.984;10.672;2023-03-23T00:01:34;2.70;;;1.80;;
30133;SDS011;16946;49.984;10.672;2023-03-23T00:02:06;1.70;;;1.60;;
30133;SDS011;16946;49.984;10.672;2023-03-23T00:02:37;3.50;;;1.90;;
30133;SDS011;16946;49.984;10.672;2023-03-23T00:03:08;4.90;;;2.60;;
30133;SDS011;16946;49.984;10.672;2023-03-23T00:03:39;2.80;;;2.17;;
30133;SDS011;16946;49.984;10.672;2023-03-23T00:04:10;3.17;;;2.00;;
30133;SDS011;16946;49.984;10.672;2023-03-23T00:04:43;3.97;;;2.03;;
30133;SDS011;16946;49.984;10.672;2023-03-23T00:05:13;3.17;;;2.27;;
30133;SDS011;16946;49.984;10.672;2023-03-23T00:05:44;3.00;;;1.93;;
30133;SDS011;16946;49.984;10.672;2023-03-23T00:06:20;3.75;;;2.33;;
30133;SDS011;16946;49.984;10.672;2023-03-23T00:06:51;3.30;;;2.13;;
30133;SDS011;16946;49.984;10.672;2023-03-23T00:07:22;2.37;;;2.13;;
30133;SDS011;16946;49.984;10.672;2023-03-23T00:07:57;4.05;;;2.15;;
30133;SDS011;16946;49.984;10.672;2023-03-23T00:08:32;2.47;;;1.80;;
30133;SDS011;16946;49.984;10.672;2023-03-23T00:09:07;3.15;;;2.00;;
30133;SDS011;16946;49.984;10.672;2023-03-23T00:09:39;2.58;;;1.90;;
30133;SDS011;16946;49.984;10.672;2023-03-23T00:10:11;3.78;;;2.00;;
30133;SDS011;16946;49.984;10.672;2023-03-23T00:10:41;3.07;;;2.10;;
30133;SDS011;16946;49.984;10.672;2023-03-23T00:11:19;2.37;;;2.10;;
30133;SDS011;16946;49.984;10.672;2023-03-23T00:11:51;3.40;;;2.38;;
30133;SDS011;16946;49.984;10.672;2023-03-23T00:12:23;2.97;;;2.15;;
30133;SDS011;16946;49.984;10.672;2023-03-23T00:13:02;3.38;;;2.20;;
30133;SDS011;16946;49.984;10.672;2023-03-23T00:13:34;4.18;;;2.22;;
30133;SDS011;16946;49.984;10.672;2023-03-23T00:14:05;2.70;;;2.07;;
30133;SDS011;16946;49.984;10.672;2023-03-23T00:14:35;2.73;;;2.43;;
30133;SDS011;16946;49.984;10.672;2023-03-23T00:15:11;2.67;;;2.17;;
30133;SDS011;16946;49.984;10.672;2023-03-23T00:15:42;3.30;;;2.10;;
30133;SDS011;16946;49.984;10.672;2023-03-23T00:16:13;4.30;;;1.90;;
30133;SDS011;16946;49.984;10.672;2023-03-23T00:16:47;3.30;;;2.00;;
30133;SDS011;16946;49.984;10.672;2023-03-23T00:17:19;2.90;;;2.00;;
30133;SDS011;16946;49.984;10.672;2023-03-23T00:17:49;3.63;;;2.10;;
30133;SDS011;16946;49.984;10.672;2023-03-23T00:18:21;3.72;;;2.05;;
30133;SDS011;16946;49.984;10.672;2023-03-23T00:18:52;3.15;;;2.20;;
30133;SDS011;16946;49.984;10.672;2023-03-23T00:19:23;3.53;;;2.47;;
30133;SDS011;16946;49.984;10.672;2023-03-23T00:19:53;2.27;;;2.07;;
30133;SDS011;16946;49.984;10.672;2023-03-23T00:20:24;2.60;;;1.90;;
30133;SDS011;16946;49.984;10.672;2023-03-23T00:20:59;2.70;;;2.28;;
30133;SDS011;16946;49.984;10.672;2023-03-23T00:21:33;2.97;;;2.30;;
30133;SDS011;16946;49.984;10.672;2023-03-23T00:22:05;1.65;;;1.40;;
30133;SDS011;16946;49.984;10.672;2023-03-23T00:22:36;3.83;;;1.83;;
30133;SDS011;16946;49.984;10.672;2023-03-23T00:23:07;3.22;;;1.90;;
30133;SDS011;16946;49.984;10.672;2023-03-23T00:23:38;2.70;;;1.70;;
30133;SDS011;16946;49.984;10.672;2023-03-23T00:24:10;2.85;;;2.00;;
30133;SDS011;16946;49.984;10.672;2023-03-23T00:24:48;2.40;;;2.17;;
30133;SDS011;16946;49.984;10.672;2023-03-23T00:25:20;3.20;;;1.90;;
30133;SDS011;16946;49.984;10.672;2023-03-23T00:25:52;2.70;;;1.90;;
30133;SDS011;16946;49.984;10.672;2023-03-23T00:26:26;2.78;;;1.92;;
30133;SDS011;16946;49.984;10.672;2023-03-23T00:26:59;4.15;;;1.65;;
30133;SDS011;16946;49.984;10.672;2023-03-23T00:27:30;3.22;;;1.73;;
30133;SDS011;16946;49.984;10.672;2023-03-23T00:28:01;2.53;;;2.00;;
30133;SDS011;16946;49.984;10.672;2023-03-23T00:28:32;2.05;;;1.85;;
30133;SDS011;16946;49.984;10.672;2023-03-23T00:29:03;3.03;;;2.20;;
30133;SDS011;16946;49.984;10.672;2023-03-23T00:29:34;3.42;;;1.80;;
30133;SDS011;16946;49.984;10.672;2023-03-23T00:30:05;1.90;;;1.60;;
30133;SDS011;16946;49.984;10.672;2023-03-23T00:30:36;4.15;;;1.73;;
30133;SDS011;16946;49.984;10.672;2023-03-23T00:31:07;3.03;;;1.83;;
30133;SDS011;16946;49.984;10.672;2023-03-23T00:31:42;3.15;;;1.80;;
30133;SDS011;16946;49.984;10.672;2023-03-23T00:32:18;3.15;;;1.63;;
30133;SDS011;16946;49.984;10.672;2023-03-23T00:32:50;2.53;;;1.70;;
30133;SDS011;16946;49.984;10.672;2023-03-23T00:33:21;3.37;;;1.80;;
30133;SDS011;16946;49.984;10.672;2023-03-23T00:33:52;4.10;;;1.40;;
30133;SDS011;16946;49.984;10.672;2023-03-23T00:34:23;1.73;;;1.57;;
30133;SDS011;16946;49.984;10.672;2023-03-23T00:34:55;1.67;;;1.58;;
30133;SDS011;16946;49.984;10.672;2023-03-23T00:35:28;3.08;;;1.40;;
30133;SDS011;16946;49.984;10.672;2023-03-23T00:36:00;3.03;;;1.92;;
30133;SDS011;16946;49.984;10.672;2023-03-23T00:36:31;2.43;;;2.03;;
30133;SDS011;16946;49.984;10.672;2023-03-23T00:37:04;3.97;;;2.17;;
30133;SDS011;16946;49.984;10.672;2023-03-23T00:37:35;2.40;;;1.80;;
30133;SDS011;16946;49.984;10.672;2023-03-23T00:38:06;3.50;;;1.87;;
30133;SDS011;16946;49.984;10.672;2023-03-23T00:38:37;8.07;;;1.73;;
30133;SDS011;16946;49.984;10.672;2023-03-23T00:39:08;2.10;;;1.77;;
30133;SDS011;16946;49.984;10.672;2023-03-23T00:39:39;3.10;;;1.97;;
30133;SDS011;16946;49.984;10.672;2023-03-23T00:40:16;3.20;;;1.70;;
30133;SDS011;16946;49.984;10.672;2023-03-23T00:40:47;2.08;;;1.70;;
30133;SDS011;16946;49.984;10.672;2023-03-23T00:41:17;2.47;;;1.60;;
30133;SDS011;16946;49.984;10.672;2023-03-23T00:41:48;2.63;;;1.90;;
30133;SDS011;16946;49.984;10.672;2023-03-23T00:42:18;5.57;;;1.90;;
30133;SDS011;16946;49.984;10.672;2023-03-23T00:42:49;2.37;;;1.47;;
30133;SDS011;16946;49.984;10.672;2023-03-23T00:43:20;3.70;;;1.90;;
30133;SDS011;16946;49.984;10.672;2023-03-23T00:43:55;4.20;;;1.90;;
30133;SDS011;16946;49.984;10.672;2023-03-23T00:44:32;3.83;;;1.70;;
30133;SDS011;16946;49.984;10.672;2023-03-23T00:45:05;2.22;;;1.60;;
30133;SDS011;16946;49.984;10.672;2023-03-23T00:45:40;3.05;;;1.70;;
30133;SDS011;16946;49.984;10.672;2023-03-23T00:46:11;2.83;;;1.67;;
30133;SDS011;16946;49.984;10.672;2023-03-23T00:46:41;4.77;;;2.07;;
30133;SDS011;16946;49.984;10.672;2023-03-23T00:47:15;2.28;;;1.85;;
30133;SDS011;16946;49.984;10.672;2023-03-23T00:47:47;3.85;;;1.60;;
30133;SDS011;16946;49.984;10.672;2023-03-23T00:48:23;4.10;;;1.65;;
30133;SDS011;16946;49.984;10.672;2023-03-23T00:48:55;2.72;;;1.60;;
30133;SDS011;16946;49.984;10.672;2023-03-23T00:49:26;3.83;;;1.80;;
30133;SDS011;16946;49.984;10.672;2023-03-23T00:49:57;4.83;;;1.80;;
30133;SDS011;16946;49.984;10.672;2023-03-23T00:50:27;4.57;;;2.00;;
30133;SDS011;16946;49.984;10.672;2023-03-23T00:50:58;3.80;;;1.77;;
30133;SDS011;16946;49.984;10.672;2023-03-23T00:51:31;3.25;;;1.90;;
30133;SDS011;16946;49.984;10.672;2023-03-23T00:52:02;3.57;;;1.60;;
30133;SDS011;16946;49.984;10.672;2023-03-23T00:52:34;3.58;;;1.80;;
30133;SDS011;16946;49.984;10.672;2023-03-23T00:53:05;1.83;;;1.60;;
30133;SDS011;16946;49.984;10.672;2023-03-23T00:53:35;2.80;;;1.70;;
30133;SDS011;16946;49.984;10.672;2023-03-23T00:54:06;5.47;;;1.80;;
30133;SDS011;16946;49.984;10.672;2023-03-23T00:54:37;2.85;;;1.60;;
30133;SDS011;16946;49.984;10.672;2023-03-23T00:55:08;3.77;;;2.03;;
30133;SDS011;16946;49.984;10.672;2023-03-23T00:55:40;3.37;;;1.93;;
30133;SDS011;16946;49.984;10.672;2023-03-23T00:56:14;1.80;;;1.50;;
30133;SDS011;16946;49.984;10.672;2023-03-23T00:56:45;1.73;;;1.50;;
30133;SDS011;16946;49.984;10.672;2023-03-23T00:57:16;2.97;;;1.57;;
30133;SDS011;16946;49.984;10.672;2023-03-23T00:57:47;4.03;;;1.60;;
30133;SDS011;16946;49.984;10.672;2023-03-23T00:58:20;1.60;;;1.50;;
30133;SDS011;16946;49.984;10.672;2023-03-23T00:58:50;2.90;;;1.80;;
30133;SDS011;16946;49.984;10.672;2023-03-23T00:59:21;4.53;;;1.70;;
30133;SDS011;16946;49.984;10.672;2023-03-23T00:59:52;2.50;;;1.73;;
30133;SDS011;16946;49.984;10.672;2023-03-23T01:00:22;2.70;;;1.70;;
30133;SDS011;16946;49.984;10.672;2023-03-23T01:00:53;1.73;;;1.40;;
30133;SDS011;16946;49.984;10.672;2023-03-23T01:01:24;3.37;;;1.70;;
30133;SDS011;16946;49.984;10.672;2023-03-23T01:01:54;2.37;;;1.90;;
30133;SDS011;16946;49.984;10.672;2023-03-23T01:02:25;3.40;;;1.87;;
30133;SDS011;16946;49.984;10.672;2023-03-23T01:02:56;1.83;;;1.30;;
30133;SDS011;16946;49.984;10.672;2023-03-23T01:03:26;3.00;;;1.63;;
30133;SDS011;16946;49.984;10.672;2023-03-23T01:03:58;3.72;;;1.60;;
30133;SDS011;16946;49.984;10.672;2023-03-23T01:04:34;2.03;;;1.50;;
30133;SDS011;16946;49.984;10.672;2023-03-23T01:05:06;3.30;;;1.90;;
30133;SDS011;16946;49.984;10.672;2023-03-23T01:05:38;2.07;;;1.50;;
30133;SDS011;16946;49.984;10.672;2023-03-23T01:06:10;2.22;;;1.80;;
30133;SDS011;16946;49.984;10.672;2023-03-23T01:06:44;2.40;;;1.50;;
30133;SDS011;16946;49.984;10.672;2023-03-23T01:07:14;3.83;;;1.52;;
30133;SDS011;16946;49.984;10.672;2023-03-23T01:07:48;2.00;;;1.50;;
30133;SDS011;16946;49.984;10.672;2023-03-23T01:08:18;3.60;;;1.63;;
30133;SDS011;16946;49.984;10.672;2023-03-23T01:08:49;2.10;;;1.67;;
30133;SDS011;16946;49.984;10.672;2023-03-23T01:09:20;2.27;;;1.67;;
30133;SDS011;16946;49.984;10.672;2023-03-23T01:09:53;2.53;;;1.60;;
30133;SDS011;16946;49.984;10.672;2023-03-23T01:10:24;2.73;;;1.57;;
30133;SDS011;16946;49.984;10.672;2023-03-23T01:11:01;3.60;;;1.40;;
30133;SDS011;16946;49.984;10.672;2023-03-23T01:11:34;3.10;;;1.70;;
30133;SDS011;16946;49.984;10.672;2023-03-23T01:12:05;2.72;;;1.55;;
30133;SDS011;16946;49.984;10.672;2023-03-23T01:12:37;2.03;;;1.58;;
30133;SDS011;16946;49.984;10.672;2023-03-23T01:13:08;3.15;;;1.80;;
30133;SDS011;16946;49.984;10.672;2023-03-23T01:13:39;2.30;;;1.50;;
30133;SDS011;16946;49.984;10.672;2023-03-23T01:14:11;4.25;;;1.80;;
30133;SDS011;16946;49.984;10.672;2023-03-23T01:14:43;2.17;;;1.30;;
30133;SDS011;16946;49.984;10.672;2023-03-23T01:15:14;3.07;;;1.60;;
30133;SDS011;16946;49.984;10.672;2023-03-23T01:15:46;3.63;;;1.55;;
30133;SDS011;16946;49.984;10.672;2023-03-23T01:16:16;2.27;;;1.67;;
30133;SDS011;16946;49.984;10.672;2023-03-23T01:16:47;2.17;;;1.50;;
30133;SDS011;16946;49.984;10.672;2023-03-23T01:17:17;2.00;;;1.50;;
30133;SDS011;16946;49.984;10.672;2023-03-23T01:17:48;3.23;;;1.70;;
30133;SDS011;16946;49.984;10.672;2023-03-23T01:18:19;4.10;;;1.30;;
30133;SDS011;16946;49.984;10.672;2023-03-23T01:18:49;2.13;;;1.47;;
30133;SDS011;16946;49.984;10.672;2023-03-23T01:19:20;3.77;;;2.00;;
30133;SDS011;16946;49.984;10.672;2023-03-23T01:19:51;1.83;;;1.67;;
30133;SDS011;16946;49.984;10.672;2023-03-23T01:20:22;2.73;;;1.70;;
30133;SDS011;16946;49.984;10.672;2023-03-23T01:20:54;3.03;;;1.55;;
30133;SDS011;16946;49.984;10.672;2023-03-23T01:21:25;1.43;;;1.30;;
30133;SDS011;16946;49.984;10.672;2023-03-23T01:21:56;1.57;;;1.20;;
30133;SDS011;16946;49.984;10.672;2023-03-23T01:22:26;3.30;;;1.50;;
30133;SDS011;16946;49.984;10.672;2023-03-23T01:23:00;4.07;;;1.43;;
30133;SDS011;16946;49.984;10.672;2023-03-23T01:23:31;2.22;;;1.42;;
30133;SDS011;16946;49.984;10.672;2023-03-23T01:24:03;3.05;;;1.60;;
30133;SDS011;16946;49.984;10.672;2023-03-23T01:24:35;2.10;;;1.40;;
30133;SDS011;16946;49.984;10.672;2023-03-23T01:25:06;2.60;;;1.70;;
30133;SDS011;16946;49.984;10.672;2023-03-23T01:25:37;1.88;;;1.35;;
30133;SDS011;16946;49.984;10.672;2023-03-23T01:26:10;1.93;;;1.60;;
30133;SDS011;16946;49.984;10.672;2023-03-23T01:26:42;4.18;;;2.03;;
30133;SDS011;16946;49.984;10.672;2023-03-23T01:27:12;2.93;;;1.40;;
30133;SDS011;16946;49.984;10.672;2023-03-23T01:27:43;1.87;;;1.50;;
30133;SDS011;16946;49.984;10.672;2023-03-23T01:28:13;1.83;;;1.57;;
30133;SDS011;16946;49.984;10.672;2023-03-23T01:28:44;1.73;;;1.40;;
30133;SDS011;16946;49.984;10.672;2023-03-23T01:29:15;2.33;;;1.40;;
30133;SDS011;16946;49.984;10.672;2023-03-23T01:29:46;1.90;;;1.30;;
30133;SDS011;16946;49.984;10.672;2023-03-23T01:30:16;3.90;;;1.60;;
30133;SDS011;16946;49.984;10.672;2023-03-23T01:30:47;3.50;;;1.87;;
30133;SDS011;16946;49.984;10.672;2023-03-23T01:31:18;1.90;;;1.40;;
30133;SDS011;16946;49.984;10.672;2023-03-23T01:31:50;2.33;;;1.42;;
30133;SDS011;16946;49.984;10.672;2023-03-23T01:32:21;2.17;;;1.30;;
30133;SDS011;16946;49.984;10.672;2023-03-23T01:32:51;1.77;;;1.40;;
30133;SDS011;16946;49.984;10.672;2023-03-23T01:33:22;3.03;;;1.43;;
30133;SDS011;16946;49.984;10.672;2023-03-23T01:33:52;2.63;;;1.73;;
30133;SDS011;16946;49.984;10.672;2023-03-23T01:34:25;3.22;;;1.30;;
30133;SDS011;16946;49.984;10.672;2023-03-23T01:34:55;2.23;;;1.30;;
30133;SDS011;16946;49.984;10.672;2023-03-23T01:35:26;5.50;;;1.60;;
30133;SDS011;16946;49.984;10.672;2023-03-23T01:35:57;2.33;;;1.50;;
30133;SDS011;16946;49.984;10.672;2023-03-23T01:36:28;2.30;;;1.30;;
30133;SDS011;16946;49.984;10.672;2023-03-23T01:37:02;2.78;;;1.75;;
30133;SDS011;16946;49.984;10.672;2023-03-23T01:37:33;1.60;;;1.20;;
30133;SDS011;16946;49.984;10.672;2023-03-23T01:38:03;2.53;;;1.50;;
30133;SDS011;16946;49.984;10.672;2023-03-23T01:38:34;3.03;;;1.50;;
30133;SDS011;16946;49.984;10.672;2023-03-23T01:39:05;2.13;;;1.60;;
30133;SDS011;16946;49.984;10.672;2023-03-23T01:39:36;2.90;;;1.33;;
30133;SDS011;16946;49.984;10.672;2023-03-23T01:40:07;3.78;;;1.35;;
30133;SDS011;16946;49.984;10.672;2023-03-23T01:40:38;4.20;;;1.30;;
30133;SDS011;16946;49.984;10.672;2023-03-23T01:41:09;3.07;;;1.30;;
30133;SDS011;16946;49.984;10.672;2023-03-23T01:41:40;2.88;;;1.20;;
30133;SDS011;16946;49.984;10.672;2023-03-23T01:42:11;4.23;;;1.50;;
30133;SDS011;16946;49.984;10.672;2023-03-23T01:42:42;4.87;;;1.60;;
30133;SDS011;16946;49.984;10.672;2023-03-23T01:43:13;1.97;;;1.50;;
30133;SDS011;16946;49.984;10.672;2023-03-23T01:45:59;2.45;;;1.30;;
30133;SDS011;16946;49.984;10.672;2023-03-23T01:46:30;2.17;;;1.60;;
30133;SDS011;16946;49.984;10.672;2023-03-23T01:47:03;3.63;;;1.40;;
30133;SDS011;16946;49.984;10.672;2023-03-23T01:47:33;3.95;;;1.50;;
30133;SDS011;16946;49.984;10.672;2023-03-23T01:48:23;3.53;;;1.50;;
30133;SDS011;16946;49.984;10.672;2023-03-23T01:48:58;1.70;;;1.40;;
30133;SDS011;16946;49.984;10.672;2023-03-23T01:49:37;2.20;;;1.30;;
30133;SDS011;16946;49.984;10.672;2023-03-23T01:50:12;2.22;;;1.50;;
30133;SDS011;16946;49.984;10.672;2023-03-23T01:50:45;1.57;;;1.20;;
30133;SDS011;16946;49.984;10.672;2023-03-23T01:51:21;2.20;;;1.48;;
30133;SDS011;16946;49.984;10.672;2023-03-23T01:51:53;2.90;;;1.50;;
30133;SDS011;16946;49.984;10.672;2023-03-23T01:52:26;2.15;;;1.40;;
30133;SDS011;16946;49.984;10.672;2023-03-23T01:52:59;2.78;;;1.60;;
30133;SDS011;16946;49.984;10.672;2023-03-23T01:53:33;1.73;;;1.50;;
30133;SDS011;16946;49.984;10.672;2023-03-23T01:54:09;2.60;;;1.50;;
30133;SDS011;16946;49.984;10.672;2023-03-23T01:54:44;2.30;;;1.45;;
30133;SDS011;16946;49.984;10.672;2023-03-23T01:55:16;2.47;;;1.70;;
30133;SDS011;16946;49.984;10.672;2023-03-23T01:55:49;1.80;;;1.30;;
30133;SDS011;16946;49.984;10.672;2023-03-23T01:56:24;1.70;;;1.38;;
30133;SDS011;16946;49.984;10.672;2023-03-23T01:57:01;2.80;;;1.40;;
30133;SDS011;16946;49.984;10.672;2023-03-23T01:57:36;2.60;;;1.30;;
30133;SDS011;16946;49.984;10.672;2023-03-23T01:58:06;2.37;;;1.20;;
30133;SDS011;16946;49.984;10.672;2023-03-23T01:58:39;1.95;;;1.40;;
30133;SDS011;16946;49.984;10.672;2023-03-23T01:59:11;4.13;;;1.55;;
30133;SDS011;16946;49.984;10.672;2023-03-23T01:59:43;1.50;;;1.30;;
30133;SDS011;16946;49.984;10.672;2023-03-23T02:00:19;2.55;;;1.45;;
30133;SDS011;16946;49.984;10.672;2023-03-23T02:00:52;1.60;;;1.30;;
30133;SDS011;16946;49.984;10.672;2023-03-23T02:01:25;1.92;;;1.40;;
30133;SDS011;16946;49.984;10.672;2023-03-23T02:01:56;1.65;;;1.40;;
30133;SDS011;16946;49.984;10.672;2023-03-23T02:02:26;2.37;;;1.33;;
30133;SDS011;16946;49.984;10.672;2023-03-23T02:02:57;1.50;;;1.33;;
30133;SDS011;16946;49.984;10.672;2023-03-23T02:03:28;5.97;;;1.90;;
30133;SDS011;16946;49.984;10.672;2023-03-23T02:04:01;4.13;;;1.48;;
30133;SDS011;16946;49.984;10.672;2023-03-23T02:04:32;5.87;;;1.57;;
30133;SDS011;16946;49.984;10.672;2023-03-23T02:05:06;1.95;;;1.42;;
30133;SDS011;16946;49.984;10.672;2023-03-23T02:05:41;2.50;;;1.40;;
30133;SDS011;16946;49.984;10.672;2023-03-23T02:06:12;2.45;;;1.42;;
30133;SDS011;16946;49.984;10.672;2023-03-23T02:06:43;2.57;;;1.50;;
30133;SDS011;16946;49.984;10.672;2023-03-23T02:07:15;2.42;;;1.33;;
30133;SDS011;16946;49.984;10.672;2023-03-23T02:07:49;1.92;;;1.40;;
30133;SDS011;16946;49.984;10.672;2023-03-23T02:08:21;1.58;;;1.30;;
30133;SDS011;16946;49.984;10.672;2023-03-23T02:08:52;1.88;;;1.33;;
30133;SDS011;16946;49.984;10.672;2023-03-23T02:09:26;1.97;;;1.10;;
30133;SDS011;16946;49.984;10.672;2023-03-23T02:09:57;1.83;;;1.40;;
30133;SDS011;16946;49.984;10.672;2023-03-23T02:10:27;2.50;;;1.40;;
30133;SDS011;16946;49.984;10.672;2023-03-23T02:11:08;1.75;;;1.38;;
30133;SDS011;16946;49.984;10.672;2023-03-23T02:11:41;2.67;;;1.20;;
30133;SDS011;16946;49.984;10.672;2023-03-23T02:12:13;1.73;;;1.45;;
30133;SDS011;16946;49.984;10.672;2023-03-23T02:12:43;4.20;;;1.70;;
30133;SDS011;16946;49.984;10.672;2023-03-23T02:13:14;2.30;;;1.57;;
30133;SDS011;16946;49.984;10.672;2023-03-23T02:13:45;1.77;;;1.33;;
30133;SDS011;16946;49.984;10.672;2023-03-23T02:14:17;1.48;;;1.05;;
30133;SDS011;16946;49.984;10.672;2023-03-23T02:14:48;2.83;;;1.25;;
30133;SDS011;16946;49.984;10.672;2023-03-23T02:15:18;2.63;;;1.20;;
30133;SDS011;16946;49.984;10.672;2023-03-23T02:18:04;4.78;;;1.30;;
30133;SDS011;16946;49.984;10.672;2023-03-23T02:18:46;1.65;;;1.20;;
30133;SDS011;16946;49.984;10.672;2023-03-23T02:22:00;2.92;;;1.38;;
30133;SDS011;16946;49.984;10.672;2023-03-23T02:23:55;2.10;;;1.17;;
30133;SDS011;16946;49.984;10.672;2023-03-23T02:26:33;4.35;;;1.35;;
30133;SDS011;16946;49.984;10.672;2023-03-23T02:27:33;1.63;;;1.30;;
30133;SDS011;16946;49.984;10.672;2023-03-23T02:30:13;1.77;;;1.20;;
30133;SDS011;16946;49.984;10.672;2023-03-23T02:31:56;1.30;;;1.20;;
30133;SDS011;16946;49.984;10.672;2023-03-23T02:34:45;2.43;;;1.27;;
30133;SDS011;16946;49.984;10.672;2023-03-23T02:35:28;3.03;;;1.25;;
30133;SDS011;16946;49.984;10.672;2023-03-23T02:36:08;5.35;;;1.40;;
30133;SDS011;16946;49.984;10.672;2023-03-23T02:36:54;1.88;;;1.60;;
30133;SDS011;16946;49.984;10.672;2023-03-23T02:37:30;1.65;;;1.30;;
30133;SDS011;16946;49.984;10.672;2023-03-23T02:38:07;2.05;;;1.60;;
30133;SDS011;16946;49.984;10.672;2023-03-23T02:39:05;2.15;;;1.45;;
30133;SDS011;16946;49.984;10.672;2023-03-23T02:39:55;2.10;;;1.10;;
30133;SDS011;16946;49.984;10.672;2023-03-23T02:40:43;1.60;;;1.40;;
30133;SDS011;16946;49.984;10.672;2023-03-23T02:41:21;2.03;;;1.17;;
30133;SDS011;16946;49.984;10.672;2023-03-23T02:42:00;1.15;;;1.00;;
30133;SDS011;16946;49.984;10.672;2023-03-23T02:42:37;3.88;;;1.40;;
30133;SDS011;16946;49.984;10.672;2023-03-23T02:43:13;1.75;;;1.30;;
30133;SDS011;16946;49.984;10.672;2023-03-23T02:43:45;1.60;;;1.40;;
30133;SDS011;16946;49.984;10.672;2023-03-23T02:44:17;2.60;;;1.40;;
30133;SDS011;16946;49.984;10.672;2023-03-23T02:44:49;1.90;;;1.20;;
30133;SDS011;16946;49.984;10.672;2023-03-23T02:45:21;1.48;;;1.10;;
30133;SDS011;16946;49.984;10.672;2023-03-23T02:45:54;1.95;;;1.42;;
30133;SDS011;16946;49.984;10.672;2023-03-23T02:46:27;1.42;;;1.20;;
30133;SDS011;16946;49.984;10.672;2023-03-23T02:46:59;1.80;;;1.20;;
30133;SDS011;16946;49.984;10.672;2023-03-23T02:47:33;1.83;;;1.10;;
30133;SDS011;16946;49.984;10.672;2023-03-23T02:48:06;2.42;;;1.50;;
30133;SDS011;16946;49.984;10.672;2023-03-23T02:48:40;1.83;;;1.20;;
30133;SDS011;16946;49.984;10.672;2023-03-23T02:49:12;1.60;;;1.48;;
30133;SDS011;16946;49.984;10.672;2023-03-23T02:49:46;2.80;;;1.23;;
30133;SDS011;16946;49.984;10.672;2023-03-23T02:50:20;2.00;;;1.27;;
30133;SDS011;16946;49.984;10.672;2023-03-23T02:50:53;2.85;;;1.42;;
30133;SDS011;16946;49.984;10.672;2023-03-23T02:51:24;1.27;;;1.10;;
30133;SDS011;16946;49.984;10.672;2023-03-23T02:51:56;2.05;;;1.40;;
30133;SDS011;16946;49.984;10.672;2023-03-23T02:52:29;1.50;;;1.20;;
30133;SDS011;16946;49.984;10.672;2023-03-23T02:53:01;4.35;;;1.40;;
30133;SDS011;16946;49.984;10.672;2023-03-23T02:53:36;2.60;;;1.10;;
30133;SDS011;16946;49.984;10.672;2023-03-23T02:54:10;1.33;;;1.13;;
30133;SDS011;16946;49.984;10.672;2023-03-23T02:54:43;1.70;;;1.30;;
30133;SDS011;16946;49.984;10.672;2023-03-23T02:55:16;2.40;;;1.23;;
30133;SDS011;16946;49.984;10.672;2023-03-23T02:55:49;1.23;;;1.10;;
30133;SDS011;16946;49.984;10.672;2023-03-23T02:56:23;1.50;;;1.30;;
30133;SDS011;16946;49.984;10.672;2023-03-23T02:56:57;2.05;;;1.40;;
30133;SDS011;16946;49.984;10.672;2023-03-23T02:57:28;2.30;;;1.30;;
30133;SDS011;16946;49.984;10.672;2023-03-23T02:57:59;2.63;;;1.00;;
30133;SDS011;16946;49.984;10.672;2023-03-23T02:58:31;1.63;;;1.20;;
30133;SDS011;16946;49.984;10.672;2023-03-23T02:59:03;1.90;;;1.40;;
30133;SDS011;16946;49.984;10.672;2023-03-23T02:59:33;3.23;;;1.33;;
30133;SDS011;16946;49.984;10.672;2023-03-23T03:00:05;2.00;;;1.43;;
30133;SDS011;16946;49.984;10.672;2023-03-23T03:00:45;1.40;;;0.95;;
30133;SDS011;16946;49.984;10.672;2023-03-23T03:02:03;2.40;;;1.10;;
30133;SDS011;16946;49.984;10.672;2023-03-23T03:02:43;2.30;;;1.23;;
30133;SDS011;16946;49.984;10.672;2023-03-23T03:03:16;1.70;;;1.20;;
30133;SDS011;16946;49.984;10.672;2023-03-23T03:03:52;2.45;;;1.25;;
30133;SDS011;16946;49.984;10.672;2023-03-23T03:04:24;1.95;;;1.20;;
30133;SDS011;16946;49.984;10.672;2023-03-23T03:06:00;2.00;;;1.35;;
30133;SDS011;16946;49.984;10.672;2023-03-23T03:06:25;3.55;;;1.20;;
30133;SDS011;16946;49.984;10.672;2023-03-23T03:07:07;1.92;;;1.02;;
30133;SDS011;16946;49.984;10.672;2023-03-23T03:07:59;1.10;;;1.00;;
30133;SDS011;16946;49.984;10.672;2023-03-23T03:08:51;2.05;;;1.30;;
30133;SDS011;16946;49.984;10.672;2023-03-23T03:09:33;1.23;;;0.95;;
30133;SDS011;16946;49.984;10.672;2023-03-23T03:11:33;1.52;;;1.20;;
30133;SDS011;16946;49.984;10.672;2023-03-23T03:12:12;2.80;;;1.30;;
30133;SDS011;16946;49.984;10.672;2023-03-23T03:13:03;2.25;;;1.10;;
30133;SDS011;16946;49.984;10.672;2023-03-23T03:13:52;2.22;;;1.17;;
30133;SDS011;16946;49.984;10.672;2023-03-23T03:14:27;2.60;;;1.00;;
30133;SDS011;16946;49.984;10.672;2023-03-23T03:16:01;2.53;;;1.20;;
30133;SDS011;16946;49.984;10.672;2023-03-23T03:16:41;3.38;;;1.42;;
30133;SDS011;16946;49.984;10.672;2023-03-23T03:17:25;2.30;;;1.15;;
30133;SDS011;16946;49.984;10.672;2023-03-23T03:18:01;2.38;;;1.20;;
30133;SDS011;16946;49.984;10.672;2023-03-23T03:19:29;1.98;;;1.13;;
30133;SDS011;16946;49.984;10.672;2023-03-23T03:20:03;1.40;;;1.00;;
30133;SDS011;16946;49.984;10.672;2023-03-23T03:20:47;1.30;;;1.10;;
30133;SDS011;16946;49.984;10.672;2023-03-23T03:21:20;1.83;;;1.35;;
30133;SDS011;16946;49.984;10.672;2023-03-23T03:21:56;1.88;;;1.23;;
30133;SDS011;16946;49.984;10.672;2023-03-23T03:22:28;2.22;;;1.30;;
30133;SDS011;16946;49.984;10.672;2023-03-23T03:22:59;1.23;;;1.10;;
30133;SDS011;16946;49.984;10.672;2023-03-23T03:23:31;1.25;;;1.15;;
30133;SDS011;16946;49.984;10.672;2023-03-23T03:24:03;2.50;;;1.20;;
30133;SDS011;16946;49.984;10.672;2023-03-23T03:24:41;1.50;;;1.02;;
30133;SDS011;16946;49.984;10.672;2023-03-23T03:25:14;2.58;;;1.20;;
30133;SDS011;16946;49.984;10.672;2023-03-23T03:25:46;2.22;;;1.00;;
30133;SDS011;16946;49.984;10.672;2023-03-23T03:26:18;1.80;;;1.20;;
30133;SDS011;16946;49.984;10.672;2023-03-23T03:26:51;2.88;;;1.17;;
30133;SDS011;16946;49.984;10.672;2023-03-23T03:27:23;1.85;;;1.20;;
30133;SDS011;16946;49.984;10.672;2023-03-23T03:27:55;1.50;;;1.30;;
30133;SDS011;16946;49.984;10.672;2023-03-23T03:28:26;1.67;;;1.10;;
30133;SDS011;16946;49.984;10.672;2023-03-23T03:28:58;2.90;;;1.20;;
30133;SDS011;16946;49.984;10.672;2023-03-23T03:29:30;2.73;;;1.33;;
30133;SDS011;16946;49.984;10.672;2023-03-23T03:30:08;1.00;;;0.90;;
30133;SDS011;16946;49.984;10.672;2023-03-23T03:30:42;1.80;;;1.15;;
30133;SDS011;16946;49.984;10.672;2023-03-23T03:31:15;1.85;;;1.33;;
30133;SDS011;16946;49.984;10.672;2023-03-23T03:31:49;2.50;;;1.40;;
30133;SDS011;16946;49.984;10.672;2023-03-23T03:32:32;1.77;;;1.15;;
30133;SDS011;16946;49.984;10.672;2023-03-23T03:33:08;1.77;;;1.20;;
30133;SDS011;16946;49.984;10.672;2023-03-23T03:33:41;1.58;;;1.30;;
30133;SDS011;16946;49.984;10.672;2023-03-23T03:34:12;1.50;;;1.10;;
30133;SDS011;16946;49.984;10.672;2023-03-23T03:34:47;1.75;;;1.00;;
30133;SDS011;16946;49.984;10.672;2023-03-23T03:35:21;1.63;;;1.25;;
30133;SDS011;16946;49.984;10.672;2023-03-23T03:35:53;3.00;;;1.00;;
30133;SDS011;16946;49.984;10.672;2023-03-23T03:36:26;1.55;;;1.10;;
30133;SDS011;16946;49.984;10.672;2023-03-23T03:37:04;1.52;;;1.10;;
30133;SDS011;16946;49.984;10.672;2023-03-23T03:37:36;1.45;;;1.23;;